Temp: 7.9°C   Baro: 1005.4mb
  Wind: 2.9mph   Dir: W (273°)
  Rain: 0.8mm (0.0mm/hr)
  Sun: 0W/m2  Humidity: 94%

Historic data

Bath Spa Weather Station Historical Data
Daily Summary for October 17, 2022 Units:  Both    English   Metric
Daily Weekly Monthly Yearly Custom
  High: Low: Average:
Temperature: 64.7 °F /  18.2 °C 46.6 °F /  8.1 °C 57.9 °F /  14.4 °C
Dew Point: 56.9 °F /  13.8 °C 44.1 °F /  6.7 °C 52.2 °F /  11.2 °C
Humidity: 91% 65.4% 82%
Wind Speed: 10.6mph /  17.1km/h - 3.1mph /  5km/h
Wind Gust: 16mph /  25.7km/h - -
Wind- - SW
Pressure: 30.27 in /  1024.9 hPa 29.76 in /  1007.7 hPa -
Precipitation: 0.00 in /  0 mm    
Historical Graphs
 
 
Tabular Data for October 17, 2022
Time Temperature Dew Point Pressure Wind Wind Speed Wind Gust Humidity Rainfall Rate (Hourly) solar
00:09 60.1 °F /  15.6 °C 56.8 °F /  13.8 °C 29.77in /  1008hPa SSW 5mph /  8km/h 14mph /  22.5km/h 89% 0.00in /  0mm 0 W/m2
00:14 60.2 °F /  15.7 °C 56.9 °F /  13.8 °C 29.77in /  1008hPa SW 4.9mph /  7.9km/h 9mph /  14.5km/h 89% 0.00in /  0mm 0 W/m2
00:19 60.2 °F /  15.7 °C 56.6 °F /  13.7 °C 29.77in /  1008hPa SSW 4mph /  6.4km/h 11mph /  17.7km/h 88.2% 0.00in /  0mm 0 W/m2
00:24 60.1 °F /  15.6 °C 56.5 °F /  13.6 °C 29.77in /  1008hPa SSW 4.7mph /  7.6km/h 9mph /  14.5km/h 88% 0.00in /  0mm 0 W/m2
00:29 60.1 °F /  15.6 °C 56.5 °F /  13.6 °C 29.77in /  1008hPa SW 4.9mph /  7.9km/h 10mph /  16.1km/h 88% 0.00in /  0mm 0 W/m2
00:34 60 °F /  15.6 °C 56.4 °F /  13.6 °C 29.77in /  1008hPa SSW 4.3mph /  6.9km/h 10mph /  16.1km/h 88% 0.00in /  0mm 0 W/m2
00:39 60.1 °F /  15.6 °C 56.5 °F /  13.6 °C 29.76in /  1007.7hPa SSW 5.4mph /  8.7km/h 10mph /  16.1km/h 88% 0.00in /  0mm 0 W/m2
00:44 59.8 °F /  15.4 °C 55.9 °F /  13.3 °C 29.77in /  1008hPa SSW 2.4mph /  3.9km/h 7mph /  11.3km/h 87.2% 0.00in /  0mm 0 W/m2
00:49 59.7 °F /  15.4 °C 55.8 °F /  13.2 °C 29.77in /  1008hPa SSW 4.8mph /  7.7km/h 9mph /  14.5km/h 87% 0.00in /  0mm 0 W/m2
00:54 59.6 °F /  15.3 °C 56 °F /  13.3 °C 29.77in /  1008hPa SSW 2.4mph /  3.9km/h 5mph /  8km/h 88% 0.00in /  0mm 0 W/m2
00:59 59.5 °F /  15.3 °C 55.9 °F /  13.3 °C 29.77in /  1008hPa SSE 6mph /  9.7km/h 12mph /  19.3km/h 88% 0.00in /  0mm 0 W/m2
01:04 59.5 °F /  15.3 °C 55.9 °F /  13.3 °C 29.77in /  1008hPa SSW 2.4mph /  3.9km/h 9mph /  14.5km/h 88% 0.00in /  0mm 0 W/m2
01:09 59.5 °F /  15.3 °C 55.9 °F /  13.3 °C 29.77in /  1008hPa SSW 2.5mph /  4km/h 6mph /  9.7km/h 88% 0.00in /  0mm 0 W/m2
01:14 59.5 °F /  15.3 °C 55.9 °F /  13.3 °C 29.78in /  1008.4hPa SSW 2.6mph /  4.2km/h 5mph /  8km/h 88% 0.00in /  0mm 0 W/m2
01:19 59.5 °F /  15.3 °C 55.9 °F /  13.3 °C 29.77in /  1008hPa South 4.1mph /  6.6km/h 8mph /  12.9km/h 88% 0.00in /  0mm 0 W/m2
01:24 59.5 °F /  15.3 °C 55.9 °F /  13.3 °C 29.77in /  1008hPa South 3.2mph /  5.1km/h 7mph /  11.3km/h 88% 0.00in /  0mm 0 W/m2
01:29 59.6 °F /  15.3 °C 56 °F /  13.3 °C 29.77in /  1008hPa SSW 5.2mph /  8.4km/h 10mph /  16.1km/h 88% 0.00in /  0mm 0 W/m2
01:34 59.7 °F /  15.4 °C 56.1 °F /  13.4 °C 29.78in /  1008.4hPa SSW 3.3mph /  5.3km/h 10mph /  16.1km/h 88% 0.00in /  0mm 0 W/m2
01:39 59.6 °F /  15.3 °C 56 °F /  13.3 °C 29.77in /  1008hPa South 2.4mph /  3.9km/h 8mph /  12.9km/h 88% 0.00in /  0mm 0 W/m2
01:44 59.5 °F /  15.3 °C 55.9 °F /  13.3 °C 29.77in /  1008hPa South 4mph /  6.4km/h 8mph /  12.9km/h 88% 0.00in /  0mm 0 W/m2
01:49 59.5 °F /  15.3 °C 55.9 °F /  13.3 °C 29.77in /  1008hPa SSW 1.7mph /  2.7km/h 6mph /  9.7km/h 88% 0.00in /  0mm 0 W/m2
01:53 59.5 °F /  15.3 °C 55.9 °F /  13.3 °C 29.77in /  1008hPa SSW 2.2mph /  3.5km/h 5mph /  8km/h 88% 0.00in /  0mm 0 W/m2
01:59 59.5 °F /  15.3 °C 55.9 °F /  13.3 °C 29.78in /  1008.4hPa SSW 2.3mph /  3.7km/h 6mph /  9.7km/h 88% 0.00in /  0mm 0 W/m2
02:04 59.5 °F /  15.3 °C 55.9 °F /  13.3 °C 29.78in /  1008.4hPa SW 3.2mph /  5.1km/h 7mph /  11.3km/h 88% 0.00in /  0mm 0 W/m2
02:09 59.5 °F /  15.3 °C 55.9 °F /  13.3 °C 29.79in /  1008.7hPa South 1.9mph /  3.1km/h 6mph /  9.7km/h 88% 0.00in /  0mm 0 W/m2
02:14 59.5 °F /  15.3 °C 56 °F /  13.3 °C 29.79in /  1008.7hPa SSW 3.2mph /  5.1km/h 7mph /  11.3km/h 88.2% 0.00in /  0mm 0 W/m2
02:19 59.5 °F /  15.3 °C 56.3 °F /  13.5 °C 29.80in /  1009hPa SSW 1.9mph /  3.1km/h 5mph /  8km/h 89% 0.00in /  0mm 0 W/m2
02:24 59.5 °F /  15.3 °C 56.3 °F /  13.5 °C 29.80in /  1009hPa SSW 3.2mph /  5.1km/h 8mph /  12.9km/h 89% 0.00in /  0mm 0 W/m2
02:29 59.5 °F /  15.3 °C 56.3 °F /  13.5 °C 29.80in /  1009hPa SSW 2.4mph /  3.9km/h 8mph /  12.9km/h 89% 0.00in /  0mm 0 W/m2
02:34 59.5 °F /  15.3 °C 56.3 °F /  13.5 °C 29.80in /  1009hPa South 2.1mph /  3.4km/h 6mph /  9.7km/h 89% 0.00in /  0mm 0 W/m2
02:39 59.5 °F /  15.3 °C 56.3 °F /  13.5 °C 29.80in /  1009hPa South 4.3mph /  6.9km/h 7mph /  11.3km/h 89% 0.00in /  0mm 0 W/m2
02:44 59.6 °F /  15.3 °C 56.4 °F /  13.6 °C 29.80in /  1009hPa SSE 3.4mph /  5.5km/h 9mph /  14.5km/h 89% 0.00in /  0mm 0 W/m2
02:49 59.7 °F /  15.4 °C 56.5 °F /  13.6 °C 29.81in /  1009.4hPa SSW 3.5mph /  5.6km/h 10mph /  16.1km/h 89% 0.00in /  0mm 0 W/m2
02:54 59.7 °F /  15.4 °C 56.5 °F /  13.6 °C 29.81in /  1009.4hPa South 4mph /  6.4km/h 10mph /  16.1km/h 89% 0.00in /  0mm 0 W/m2
02:59 59.7 °F /  15.4 °C 56.5 °F /  13.6 °C 29.80in /  1009hPa SSW 3.2mph /  5.1km/h 8mph /  12.9km/h 89% 0.00in /  0mm 0 W/m2
03:04 59.7 °F /  15.4 °C 56.5 °F /  13.6 °C 29.80in /  1009hPa SSW 2.4mph /  3.9km/h 8mph /  12.9km/h 89% 0.00in /  0mm 0 W/m2
03:09 59.7 °F /  15.4 °C 56.5 °F /  13.6 °C 29.80in /  1009hPa SSW 3.6mph /  5.8km/h 8mph /  12.9km/h 89% 0.00in /  0mm 0 W/m2
03:14 59.7 °F /  15.4 °C 56.5 °F /  13.6 °C 29.81in /  1009.4hPa SW 4mph /  6.4km/h 7mph /  11.3km/h 89% 0.00in /  0mm 0 W/m2
03:19 59.7 °F /  15.4 °C 56.5 °F /  13.6 °C 29.82in /  1009.7hPa SSW 2.5mph /  4km/h 7mph /  11.3km/h 89% 0.00in /  0mm 0 W/m2
03:24 59.7 °F /  15.4 °C 56.5 °F /  13.6 °C 29.82in /  1009.7hPa SSW 4.5mph /  7.2km/h 8mph /  12.9km/h 89% 0.00in /  0mm 0 W/m2
03:29 59.7 °F /  15.4 °C 56.1 °F /  13.4 °C 29.81in /  1009.4hPa SSW 0.7mph /  1.1km/h 7mph /  11.3km/h 88% 0.00in /  0mm 0 W/m2
03:34 59.7 °F /  15.4 °C 56.1 °F /  13.4 °C 29.81in /  1009.4hPa SSW 3.7mph /  6km/h 9mph /  14.5km/h 88% 0.00in /  0mm 0 W/m2
03:39 59.5 °F /  15.3 °C 56.2 °F /  13.4 °C 29.81in /  1009.4hPa SW 4.5mph /  7.2km/h 9mph /  14.5km/h 88.6% 0.00in /  0mm 0 W/m2
03:44 59.5 °F /  15.3 °C 55.9 °F /  13.3 °C 29.81in /  1009.4hPa SSW 2mph /  3.2km/h 7mph /  11.3km/h 88% 0.00in /  0mm 0 W/m2
03:49 59.5 °F /  15.3 °C 55.9 °F /  13.3 °C 29.81in /  1009.4hPa SSW 3.7mph /  6km/h 9mph /  14.5km/h 88% 0.00in /  0mm 0 W/m2
03:54 59.5 °F /  15.3 °C 55.9 °F /  13.3 °C 29.81in /  1009.4hPa SSW 2.3mph /  3.7km/h 7mph /  11.3km/h 88% 0.00in /  0mm 0 W/m2
03:59 59.4 °F /  15.2 °C 55.8 °F /  13.2 °C 29.81in /  1009.4hPa SSW 2.8mph /  4.5km/h 6mph /  9.7km/h 88% 0.00in /  0mm 0 W/m2
04:04 59.4 °F /  15.2 °C 55.8 °F /  13.2 °C 29.82in /  1009.7hPa SSW 3.4mph /  5.5km/h 6mph /  9.7km/h 88% 0.00in /  0mm 0 W/m2
04:09 59.4 °F /  15.2 °C 55.8 °F /  13.2 °C 29.82in /  1009.7hPa SW 4.1mph /  6.6km/h 10mph /  16.1km/h 88% 0.00in /  0mm 0 W/m2
04:14 59.4 °F /  15.2 °C 55.8 °F /  13.2 °C 29.82in /  1009.7hPa SW 3.7mph /  6km/h 7mph /  11.3km/h 88% 0.00in /  0mm 0 W/m2
04:19 59.2 °F /  15.1 °C 55.6 °F /  13.1 °C 29.82in /  1009.7hPa SW 4.8mph /  7.7km/h 10mph /  16.1km/h 88% 0.00in /  0mm 0 W/m2
04:24 59.3 °F /  15.2 °C 55.4 °F /  13 °C 29.83in /  1010hPa WSW 4.3mph /  6.9km/h 8mph /  12.9km/h 87% 0.00in /  0mm 0 W/m2
04:29 59 °F /  15 °C 55.2 °F /  12.9 °C 29.83in /  1010hPa SW 5.2mph /  8.4km/h 11mph /  17.7km/h 87% 0.00in /  0mm 0 W/m2
04:34 58.8 °F /  14.9 °C 54.8 °F /  12.7 °C 29.83in /  1010hPa SW 5.8mph /  9.3km/h 11mph /  17.7km/h 86.4% 0.00in /  0mm 0 W/m2
04:39 58.6 °F /  14.8 °C 54.4 °F /  12.4 °C 29.83in /  1010hPa SW 5.7mph /  9.2km/h 13mph /  20.9km/h 85.8% 0.00in /  0mm 0 W/m2
04:44 58.5 °F /  14.7 °C 54 °F /  12.2 °C 29.83in /  1010hPa SW 3.1mph /  5km/h 9mph /  14.5km/h 85% 0.00in /  0mm 0 W/m2
04:49 58.3 °F /  14.6 °C 53.8 °F /  12.1 °C 29.83in /  1010hPa SW 3mph /  4.8km/h 4mph /  6.4km/h 85% 0.00in /  0mm 0 W/m2
04:54 58.3 °F /  14.6 °C 54.1 °F /  12.3 °C 29.83in /  1010hPa SW 3.4mph /  5.5km/h 5mph /  8km/h 86% 0.00in /  0mm 0 W/m2
04:59 58.1 °F /  14.5 °C 54 °F /  12.2 °C 29.83in /  1010hPa SW 2.9mph /  4.7km/h 7mph /  11.3km/h 86% 0.00in /  0mm 0 W/m2
05:04 57.9 °F /  14.4 °C 53.8 °F /  12.1 °C 29.83in /  1010hPa WSW 0.8mph /  1.3km/h 7mph /  11.3km/h 86% 0.00in /  0mm 0 W/m2
05:09 57.9 °F /  14.4 °C 53.8 °F /  12.1 °C 29.83in /  1010hPa SW 1.7mph /  2.7km/h 3mph /  4.8km/h 86% 0.00in /  0mm 0 W/m2
05:14 57.9 °F /  14.4 °C 53.8 °F /  12.1 °C 29.83in /  1010hPa SW 1.9mph /  3.1km/h 4mph /  6.4km/h 86% 0.00in /  0mm 0 W/m2
05:19 57.9 °F /  14.4 °C 53.8 °F /  12.1 °C 29.83in /  1010hPa SW 1.1mph /  1.8km/h 3mph /  4.8km/h 86% 0.00in /  0mm 0 W/m2
05:24 57.7 °F /  14.3 °C 53.9 °F /  12.2 °C 29.83in /  1010hPa SW 0.5mph /  0.8km/h 4mph /  6.4km/h 86.8% 0.00in /  0mm 0 W/m2
05:29 57.7 °F /  14.3 °C 54 °F /  12.2 °C 29.84in /  1010.4hPa SW 2mph /  3.2km/h 4mph /  6.4km/h 87% 0.00in /  0mm 0 W/m2
05:34 57.7 °F /  14.3 °C 54 °F /  12.2 °C 29.84in /  1010.4hPa SW 2.7mph /  4.3km/h 5mph /  8km/h 87% 0.00in /  0mm 0 W/m2
05:39 57.7 °F /  14.3 °C 54 °F /  12.2 °C 29.84in /  1010.4hPa SW 2.5mph /  4km/h 5mph /  8km/h 87% 0.00in /  0mm 0 W/m2
05:44 57.7 °F /  14.3 °C 53.9 °F /  12.2 °C 29.85in /  1010.7hPa SW 2.7mph /  4.3km/h 7mph /  11.3km/h 86.8% 0.00in /  0mm 0 W/m2
05:49 57.7 °F /  14.3 °C 53.6 °F /  12 °C 29.85in /  1010.7hPa SW 4.4mph /  7.1km/h 8mph /  12.9km/h 86% 0.00in /  0mm 0 W/m2
05:54 57.7 °F /  14.3 °C 53.6 °F /  12 °C 29.85in /  1010.7hPa SW 4.8mph /  7.7km/h 7mph /  11.3km/h 86% 0.00in /  0mm 0 W/m2
05:59 57.7 °F /  14.3 °C 53.2 °F /  11.8 °C 29.85in /  1010.7hPa SSW 4.1mph /  6.6km/h 10mph /  16.1km/h 85% 0.00in /  0mm 0 W/m2
06:04 57.6 °F /  14.2 °C 53.1 °F /  11.7 °C 29.86in /  1011.1hPa SW 6.6mph /  10.6km/h 11mph /  17.7km/h 85% 0.00in /  0mm 0 W/m2
06:09 57.6 °F /  14.2 °C 53.1 °F /  11.7 °C 29.86in /  1011.1hPa SW 6mph /  9.7km/h 14mph /  22.5km/h 85% 0.00in /  0mm 0 W/m2
06:14 57.6 °F /  14.2 °C 53.1 °F /  11.7 °C 29.86in /  1011.1hPa SW 4.8mph /  7.7km/h 12mph /  19.3km/h 85% 0.00in /  0mm 0 W/m2
06:19 57.6 °F /  14.2 °C 52.9 °F /  11.6 °C 29.87in /  1011.4hPa SW 7mph /  11.3km/h 12mph /  19.3km/h 84.4% 0.00in /  0mm 0 W/m2
06:24 57.6 °F /  14.2 °C 52.8 °F /  11.6 °C 29.87in /  1011.4hPa SSW 5.7mph /  9.2km/h 12mph /  19.3km/h 84% 0.00in /  0mm 0 W/m2
06:29 57.6 °F /  14.2 °C 52.7 °F /  11.5 °C 29.87in /  1011.4hPa SW 6.6mph /  10.6km/h 12mph /  19.3km/h 84% 0.00in /  0mm 0 W/m2
06:34 57.6 °F /  14.2 °C 52.7 °F /  11.5 °C 29.87in /  1011.4hPa SW 6.7mph /  10.8km/h 15mph /  24.1km/h 84% 0.00in /  0mm 0 W/m2
06:39 57.6 °F /  14.2 °C 52.7 °F /  11.5 °C 29.88in /  1011.7hPa SW 5mph /  8km/h 12mph /  19.3km/h 84% 0.00in /  0mm 0 W/m2
06:44 57.6 °F /  14.2 °C 52.7 °F /  11.5 °C 29.88in /  1011.7hPa SW 4.8mph /  7.7km/h 11mph /  17.7km/h 84% 0.00in /  0mm 0 W/m2
06:49 57.4 °F /  14.1 °C 52.5 °F /  11.4 °C 29.88in /  1011.7hPa SSW 4.9mph /  7.9km/h 14mph /  22.5km/h 84% 0.00in /  0mm 0 W/m2
06:54 57.4 °F /  14.1 °C 52.5 °F /  11.4 °C 29.89in /  1012.1hPa SW 7.1mph /  11.4km/h 15mph /  24.1km/h 84% 0.00in /  0mm 0 W/m2
06:59 57.4 °F /  14.1 °C 52.5 °F /  11.4 °C 29.89in /  1012.1hPa SSW 3.7mph /  6km/h 10mph /  16.1km/h 84% 0.00in /  0mm 0 W/m2
07:04 57.3 °F /  14.1 °C 52.4 °F /  11.3 °C 29.89in /  1012.1hPa SW 3.2mph /  5.1km/h 7mph /  11.3km/h 84% 0.00in /  0mm 0 W/m2
07:09 57.2 °F /  14 °C 52.3 °F /  11.3 °C 29.90in /  1012.4hPa SW 5.5mph /  8.9km/h 9mph /  14.5km/h 84% 0.00in /  0mm 0 W/m2
07:14 57.1 °F /  13.9 °C 52.3 °F /  11.3 °C 29.90in /  1012.4hPa SW 4.1mph /  6.6km/h 9mph /  14.5km/h 84% 0.00in /  0mm 0 W/m2
07:19 57 °F /  13.9 °C 52.2 °F /  11.2 °C 29.90in /  1012.4hPa SSW 4.2mph /  6.8km/h 8mph /  12.9km/h 84% 0.00in /  0mm 0 W/m2
07:24 57 °F /  13.9 °C 52.3 °F /  11.3 °C 29.90in /  1012.4hPa SW 4.8mph /  7.7km/h 10mph /  16.1km/h 84.2% 0.00in /  0mm 0 W/m2
07:29 57 °F /  13.9 °C 52.5 °F /  11.4 °C 29.91in /  1012.8hPa SW 4.4mph /  7.1km/h 8mph /  12.9km/h 85% 0.00in /  0mm 0 W/m2
07:34 56.8 °F /  13.8 °C 52.3 °F /  11.3 °C 29.91in /  1012.8hPa SW 4.7mph /  7.6km/h 8mph /  12.9km/h 85% 0.00in /  0mm 0 W/m2
07:39 56.8 °F /  13.8 °C 52.3 °F /  11.3 °C 29.91in /  1012.8hPa SW 3.6mph /  5.8km/h 8mph /  12.9km/h 85% 0.00in /  0mm 0 W/m2
07:44 56.8 °F /  13.8 °C 52.3 °F /  11.3 °C 29.91in /  1012.8hPa SW 4.8mph /  7.7km/h 8mph /  12.9km/h 85% 0.00in /  0mm 0 W/m2
07:49 56.8 °F /  13.8 °C 52.3 °F /  11.3 °C 29.91in /  1012.8hPa SSW 5mph /  8km/h 10mph /  16.1km/h 85% 0.00in /  0mm 5 W/m2
07:54 56.7 °F /  13.7 °C 52.2 °F /  11.2 °C 29.92in /  1013.1hPa SW 3.7mph /  6km/h 8mph /  12.9km/h 85% 0.00in /  0mm 9 W/m2
07:59 56.8 °F /  13.8 °C 52.3 °F /  11.3 °C 29.92in /  1013.1hPa SW 2.2mph /  3.5km/h 7mph /  11.3km/h 85% 0.00in /  0mm 16 W/m2
08:04 56.7 °F /  13.7 °C 52.2 °F /  11.2 °C 29.93in /  1013.4hPa SW 3.7mph /  6km/h 7mph /  11.3km/h 85% 0.00in /  0mm 18 W/m2
08:09 56.7 °F /  13.7 °C 52.2 °F /  11.2 °C 29.93in /  1013.4hPa SW 2.1mph /  3.4km/h 7mph /  11.3km/h 85% 0.00in /  0mm 23 W/m2
08:14 56.7 °F /  13.7 °C 52.2 °F /  11.2 °C 29.93in /  1013.4hPa SSW 1.6mph /  2.6km/h 7mph /  11.3km/h 85% 0.00in /  0mm 30 W/m2
08:19 56.7 °F /  13.7 °C 52.2 °F /  11.2 °C 29.93in /  1013.4hPa South 1.3mph /  2.1km/h 7mph /  11.3km/h 85% 0.00in /  0mm 37 W/m2
08:24 56.7 °F /  13.7 °C 52.2 °F /  11.2 °C 29.94in /  1013.8hPa WSW 1.3mph /  2.1km/h 4mph /  6.4km/h 85% 0.00in /  0mm 42 W/m2
08:29 56.7 °F /  13.7 °C 52.2 °F /  11.2 °C 29.94in /  1013.8hPa SW 0.6mph /  1km/h 5mph /  8km/h 85% 0.00in /  0mm 42 W/m2
08:34 56.5 °F /  13.6 °C 52 °F /  11.1 °C 29.95in /  1014.1hPa SW 1.6mph /  2.6km/h 5mph /  8km/h 85% 0.00in /  0mm 44 W/m2
08:39 56.5 °F /  13.6 °C 52 °F /  11.1 °C 29.95in /  1014.1hPa WSW 0.8mph /  1.3km/h 3mph /  4.8km/h 85% 0.00in /  0mm 53 W/m2
08:44 56.3 °F /  13.5 °C 51.8 °F /  11 °C 29.95in /  1014.1hPa WSW 1.2mph /  1.9km/h 3mph /  4.8km/h 85% 0.00in /  0mm 62 W/m2
08:49 56.4 °F /  13.6 °C 52.3 °F /  11.3 °C 29.96in /  1014.4hPa SSW 1.3mph /  2.1km/h 5mph /  8km/h 86% 0.00in /  0mm 70 W/m2
08:54 56.5 °F /  13.6 °C 52.3 °F /  11.3 °C 29.96in /  1014.4hPa South 1mph /  1.6km/h 3mph /  4.8km/h 86% 0.00in /  0mm 84 W/m2
08:59 56.7 °F /  13.7 °C 52.5 °F /  11.4 °C 29.96in /  1014.4hPa South 0.4mph /  0.6km/h 2mph /  3.2km/h 86% 0.00in /  0mm 81 W/m2
09:04 56.8 °F /  13.8 °C 52.7 °F /  11.5 °C 29.97in /  1014.8hPa South 0.6mph /  1km/h 3mph /  4.8km/h 86% 0.00in /  0mm 72 W/m2
09:09 56.8 °F /  13.8 °C 52.7 °F /  11.5 °C 29.97in /  1014.8hPa Calm   1mph /  1.6km/h 86% 0.00in /  0mm 65 W/m2
09:13 57 °F /  13.9 °C 52.8 °F /  11.6 °C 29.97in /  1014.8hPa South 0.7mph /  1.1km/h 3mph /  4.8km/h 86% 0.00in /  0mm 72 W/m2
09:19 57 °F /  13.9 °C 52.9 °F /  11.6 °C 29.98in /  1015.1hPa SSW 1.3mph /  2.1km/h 3mph /  4.8km/h 86% 0.00in /  0mm 81 W/m2
09:24 56.9 °F /  13.8 °C 52.8 °F /  11.6 °C 29.97in /  1014.8hPa SSW 0.5mph /  0.8km/h 3mph /  4.8km/h 86% 0.00in /  0mm 91 W/m2
09:29 57 °F /  13.9 °C 52.9 °F /  11.6 °C 29.98in /  1015.1hPa WSW 1.7mph /  2.7km/h 3mph /  4.8km/h 86% 0.00in /  0mm 72 W/m2
09:34 57.1 °F /  13.9 °C 53 °F /  11.7 °C 29.98in /  1015.1hPa West 1.2mph /  1.9km/h 4mph /  6.4km/h 86% 0.00in /  0mm 114 W/m2
09:39 57.4 °F /  14.1 °C 53.2 °F /  11.8 °C 29.98in /  1015.1hPa WNW 2mph /  3.2km/h 5mph /  8km/h 86% 0.00in /  0mm 141 W/m2
09:44 57.5 °F /  14.2 °C 53.1 °F /  11.7 °C 29.99in /  1015.5hPa WNW 3.4mph /  5.5km/h 4mph /  6.4km/h 85.2% 0.00in /  0mm 155 W/m2
09:49 57.7 °F /  14.3 °C 53.2 °F /  11.8 °C 29.99in /  1015.5hPa West 2.3mph /  3.7km/h 5mph /  8km/h 85% 0.00in /  0mm 165 W/m2
09:54 57.9 °F /  14.4 °C 53.4 °F /  11.9 °C 30.00in /  1015.8hPa West 2.8mph /  4.5km/h 8mph /  12.9km/h 85% 0.00in /  0mm 183 W/m2
09:59 58.2 °F /  14.6 °C 53.3 °F /  11.8 °C 30.00in /  1015.8hPa WSW 3.2mph /  5.1km/h 11mph /  17.7km/h 84% 0.00in /  0mm 199 W/m2
10:04 58.6 °F /  14.8 °C 53.5 °F /  11.9 °C 30.01in /  1016.1hPa WSW 3.4mph /  5.5km/h 9mph /  14.5km/h 83.4% 0.00in /  0mm 206 W/m2
10:09 58.9 °F /  14.9 °C 53.6 °F /  12 °C 30.01in /  1016.1hPa WSW 5.2mph /  8.4km/h 10mph /  16.1km/h 82.6% 0.00in /  0mm 216 W/m2
10:14 58.9 °F /  14.9 °C 53.2 °F /  11.8 °C 30.01in /  1016.1hPa SW 6.5mph /  10.5km/h 12mph /  19.3km/h 81% 0.00in /  0mm 230 W/m2
10:19 59.1 °F /  15.1 °C 53 °F /  11.7 °C 30.01in /  1016.1hPa WSW 6.4mph /  10.3km/h 11mph /  17.7km/h 80% 0.00in /  0mm 276 W/m2
10:24 59.4 °F /  15.2 °C 53.2 °F /  11.8 °C 30.01in /  1016.1hPa WSW 7.2mph /  11.6km/h 11mph /  17.7km/h 79.8% 0.00in /  0mm 297 W/m2
10:29 59.5 °F /  15.3 °C 53.1 °F /  11.7 °C 30.02in /  1016.5hPa WSW 7mph /  11.3km/h 13mph /  20.9km/h 79% 0.00in /  0mm 313 W/m2
10:34 59.7 °F /  15.4 °C 53.2 °F /  11.8 °C 30.02in /  1016.5hPa SW 4.1mph /  6.6km/h 13mph /  20.9km/h 79% 0.00in /  0mm 285 W/m2
10:39 59.9 °F /  15.5 °C 53.1 °F /  11.7 °C 30.02in /  1016.5hPa SW 7.4mph /  11.9km/h 12mph /  19.3km/h 78.2% 0.00in /  0mm 257 W/m2
10:44 59.7 °F /  15.4 °C 52.9 °F /  11.6 °C 30.03in /  1016.8hPa WSW 7mph /  11.3km/h 12mph /  19.3km/h 78% 0.00in /  0mm 304 W/m2
10:49 60 °F /  15.6 °C 52.8 °F /  11.6 °C 30.03in /  1016.8hPa SW 6.2mph /  10km/h 12mph /  19.3km/h 77% 0.00in /  0mm 313 W/m2
10:54 59.9 °F /  15.5 °C 52.3 °F /  11.3 °C 30.03in /  1016.8hPa SW 10.6mph /  17.1km/h 16mph /  25.7km/h 76% 0.00in /  0mm 327 W/m2
10:59 60 °F /  15.6 °C 52.4 °F /  11.3 °C 30.03in /  1016.8hPa SW 5.3mph /  8.5km/h 14mph /  22.5km/h 76% 0.00in /  0mm 329 W/m2
11:04 60.1 °F /  15.6 °C 52.4 °F /  11.3 °C 30.04in /  1017.2hPa WSW 7.4mph /  11.9km/h 14mph /  22.5km/h 75.4% 0.00in /  0mm 343 W/m2
11:09 60.4 °F /  15.8 °C 52.4 °F /  11.3 °C 30.04in /  1017.2hPa WSW 5.7mph /  9.2km/h 13mph /  20.9km/h 75% 0.00in /  0mm 357 W/m2
11:14 60.8 °F /  16 °C 52.9 °F /  11.6 °C 30.04in /  1017.2hPa WSW 4.1mph /  6.6km/h 8mph /  12.9km/h 75% 0.00in /  0mm 364 W/m2
11:19 61 °F /  16.1 °C 52.9 °F /  11.6 °C 30.04in /  1017.2hPa WSW 6.6mph /  10.6km/h 12mph /  19.3km/h 74.6% 0.00in /  0mm 380 W/m2
11:24 61.1 °F /  16.2 °C 52.8 °F /  11.6 °C 30.05in /  1017.5hPa SW 6.2mph /  10km/h 10mph /  16.1km/h 74% 0.00in /  0mm 378 W/m2
11:29 61 °F /  16.1 °C 52.3 °F /  11.3 °C 30.04in /  1017.2hPa SW 7.5mph /  12.1km/h 12mph /  19.3km/h 73% 0.00in /  0mm 385 W/m2
11:34 61.1 °F /  16.2 °C 52.4 °F /  11.3 °C 30.05in /  1017.5hPa WSW 8.2mph /  13.2km/h 15mph /  24.1km/h 73% 0.00in /  0mm 394 W/m2
11:39 61.2 °F /  16.2 °C 52.6 °F /  11.4 °C 30.05in /  1017.5hPa SW 4.4mph /  7.1km/h 15mph /  24.1km/h 73% 0.00in /  0mm 397 W/m2
11:44 61.3 °F /  16.3 °C 52.7 °F /  11.5 °C 30.05in /  1017.5hPa SW 6.4mph /  10.3km/h 13mph /  20.9km/h 73% 0.00in /  0mm 406 W/m2
11:49 61.5 °F /  16.4 °C 52.4 °F /  11.3 °C 30.05in /  1017.5hPa SW 5.8mph /  9.3km/h 13mph /  20.9km/h 72% 0.00in /  0mm 425 W/m2
11:54 61.7 °F /  16.5 °C 52.3 °F /  11.3 °C 30.06in /  1017.8hPa SW 6.6mph /  10.6km/h 15mph /  24.1km/h 71.2% 0.00in /  0mm 418 W/m2
11:59 61.8 °F /  16.6 °C 52.4 °F /  11.3 °C 30.06in /  1017.8hPa SW 6.2mph /  10km/h 15mph /  24.1km/h 71.4% 0.00in /  0mm 432 W/m2
12:04 61.8 °F /  16.6 °C 52.2 °F /  11.2 °C 30.06in /  1017.8hPa SW 8.3mph /  13.4km/h 14mph /  22.5km/h 70.8% 0.00in /  0mm 446 W/m2
12:09 62.1 °F /  16.7 °C 52.4 °F /  11.3 °C 30.07in /  1018.2hPa WSW 6.5mph /  10.5km/h 12mph /  19.3km/h 70.8% 0.00in /  0mm 457 W/m2
12:14 62 °F /  16.7 °C 52.4 °F /  11.3 °C 30.07in /  1018.2hPa SW 7.1mph /  11.4km/h 14mph /  22.5km/h 70.8% 0.00in /  0mm 489 W/m2
12:19 61.9 °F /  16.6 °C 51.8 °F /  11 °C 30.07in /  1018.2hPa WSW 6.3mph /  10.1km/h 16mph /  25.7km/h 69.4% 0.00in /  0mm 489 W/m2
12:24 61.9 °F /  16.6 °C 52 °F /  11.1 °C 30.07in /  1018.2hPa WSW 6mph /  9.7km/h 11mph /  17.7km/h 70% 0.00in /  0mm 485 W/m2
12:29 62.2 °F /  16.8 °C 52.1 °F /  11.2 °C 30.07in /  1018.2hPa SW 7.2mph /  11.6km/h 14mph /  22.5km/h 69.4% 0.00in /  0mm 490 W/m2
12:34 62.4 °F /  16.9 °C 52.2 °F /  11.2 °C 30.07in /  1018.2hPa SSW 6.7mph /  10.8km/h 13mph /  20.9km/h 69% 0.00in /  0mm 504 W/m2
12:39 62.2 °F /  16.8 °C 51.8 °F /  11 °C 30.07in /  1018.2hPa WSW 9mph /  14.5km/h 16mph /  25.7km/h 68.6% 0.00in /  0mm 531 W/m2
12:44 62.7 °F /  17.1 °C 52.7 °F /  11.5 °C 30.07in /  1018.2hPa WSW 6.7mph /  10.8km/h 12mph /  19.3km/h 69.8% 0.00in /  0mm 522 W/m2
12:49 63.3 °F /  17.4 °C 52.9 °F /  11.6 °C 30.08in /  1018.5hPa WSW 7mph /  11.3km/h 12mph /  19.3km/h 68.8% 0.00in /  0mm 561 W/m2
12:54 63.5 °F /  17.5 °C 52.4 °F /  11.3 °C 30.08in /  1018.5hPa SSW 8.7mph /  14km/h 13mph /  20.9km/h 67.2% 0.00in /  0mm 548 W/m2
12:59 63.3 °F /  17.4 °C 52.3 °F /  11.3 °C 30.08in /  1018.5hPa SW 7.6mph /  12.2km/h 16mph /  25.7km/h 67.4% 0.00in /  0mm 515 W/m2
13:04 62.8 °F /  17.1 °C 52 °F /  11.1 °C 30.08in /  1018.5hPa SW 6.9mph /  11.1km/h 16mph /  25.7km/h 67.8% 0.00in /  0mm 221 W/m2
13:09 62.7 °F /  17.1 °C 52.2 °F /  11.2 °C 30.09in /  1018.8hPa WSW 6.1mph /  9.8km/h 13mph /  20.9km/h 68.4% 0.00in /  0mm 559 W/m2
13:14 63.1 °F /  17.3 °C 52.3 °F /  11.3 °C 30.09in /  1018.8hPa WSW 6.4mph /  10.3km/h 14mph /  22.5km/h 68% 0.00in /  0mm 591 W/m2
13:19 63.6 °F /  17.6 °C 52.5 °F /  11.4 °C 30.09in /  1018.8hPa WSW 8.2mph /  13.2km/h 14mph /  22.5km/h 67.4% 0.00in /  0mm 596 W/m2
13:24 63.9 °F /  17.7 °C 52.6 °F /  11.4 °C 30.09in /  1018.8hPa SW 7.8mph /  12.6km/h 11mph /  17.7km/h 66.6% 0.00in /  0mm 589 W/m2
13:29 64.1 °F /  17.8 °C 53.1 °F /  11.7 °C 30.09in /  1018.8hPa SSW 6.1mph /  9.8km/h 15mph /  24.1km/h 67.2% 0.00in /  0mm 450 W/m2
13:34 63.6 °F /  17.6 °C 52.8 °F /  11.6 °C 30.09in /  1018.8hPa WSW 6.4mph /  10.3km/h 15mph /  24.1km/h 68% 0.00in /  0mm 545 W/m2
13:39 64.1 °F /  17.8 °C 53.3 °F /  11.8 °C 30.09in /  1018.8hPa SSW 6.3mph /  10.1km/h 14mph /  22.5km/h 68% 0.00in /  0mm 563 W/m2
13:44 64.2 °F /  17.9 °C 53 °F /  11.7 °C 30.09in /  1018.8hPa SW 8.6mph /  13.8km/h 14mph /  22.5km/h 67% 0.00in /  0mm 563 W/m2
13:49 64.7 °F /  18.2 °C 53.8 °F /  12.1 °C 30.09in /  1018.8hPa WSW 4.5mph /  7.2km/h 9mph /  14.5km/h 67.8% 0.00in /  0mm 496 W/m2
13:54 64.5 °F /  18.1 °C 53.7 °F /  12.1 °C 30.09in /  1018.8hPa West 5.2mph /  8.4km/h 10mph /  16.1km/h 68% 0.00in /  0mm 559 W/m2
13:59 63.9 °F /  17.7 °C 53.3 °F /  11.8 °C 30.09in /  1018.8hPa West 6.4mph /  10.3km/h 12mph /  19.3km/h 68.6% 0.00in /  0mm 568 W/m2
14:04 64 °F /  17.8 °C 53.4 °F /  11.9 °C 30.09in /  1018.8hPa West 6mph /  9.7km/h 11mph /  17.7km/h 68.6% 0.00in /  0mm 534 W/m2
14:09 63.9 °F /  17.7 °C 53.1 °F /  11.7 °C 30.10in /  1019.2hPa WSW 4.4mph /  7.1km/h 11mph /  17.7km/h 68% 0.00in /  0mm 497 W/m2
14:14 63.9 °F /  17.7 °C 53.1 °F /  11.7 °C 30.10in /  1019.2hPa WSW 5.6mph /  9km/h 10mph /  16.1km/h 68% 0.00in /  0mm 294 W/m2
14:19 63.5 °F /  17.5 °C 52.7 °F /  11.5 °C 30.10in /  1019.2hPa WSW 7.2mph /  11.6km/h 10mph /  16.1km/h 68% 0.00in /  0mm 146 W/m2
14:24 63 °F /  17.2 °C 52.4 °F /  11.3 °C 30.10in /  1019.2hPa West 5.3mph /  8.5km/h 11mph /  17.7km/h 68.4% 0.00in /  0mm 134 W/m2
14:29 63 °F /  17.2 °C 52.2 °F /  11.2 °C 30.10in /  1019.2hPa WSW 3.9mph /  6.3km/h 12mph /  19.3km/h 68% 0.00in /  0mm 199 W/m2
14:34 63.1 °F /  17.3 °C 52.2 °F /  11.2 °C 30.10in /  1019.2hPa West 6.6mph /  10.6km/h 14mph /  22.5km/h 67.8% 0.00in /  0mm 206 W/m2
14:39 63.1 °F /  17.3 °C 52.3 °F /  11.3 °C 30.10in /  1019.2hPa SW 5mph /  8km/h 11mph /  17.7km/h 67.8% 0.00in /  0mm 432 W/m2
14:44 63.7 °F /  17.6 °C 52 °F /  11.1 °C 30.10in /  1019.2hPa SW 7.8mph /  12.6km/h 13mph /  20.9km/h 65.8% 0.00in /  0mm 350 W/m2
14:49 63.4 °F /  17.4 °C 51.6 °F /  10.9 °C 30.10in /  1019.2hPa SW 6.7mph /  10.8km/h 12mph /  19.3km/h 65.4% 0.00in /  0mm 301 W/m2
14:54 63.3 °F /  17.4 °C 51.9 °F /  11.1 °C 30.10in /  1019.2hPa WSW 6.6mph /  10.6km/h 15mph /  24.1km/h 66.4% 0.00in /  0mm 178 W/m2
14:59 63.1 °F /  17.3 °C 52 °F /  11.1 °C 30.11in /  1019.5hPa WSW 7.8mph /  12.6km/h 12mph /  19.3km/h 67% 0.00in /  0mm 269 W/m2
15:04 63.1 °F /  17.3 °C 52.2 °F /  11.2 °C 30.11in /  1019.5hPa WSW 5mph /  8km/h 10mph /  16.1km/h 67.6% 0.00in /  0mm 237 W/m2
15:09 63.1 °F /  17.3 °C 52.3 °F /  11.3 °C 30.11in /  1019.5hPa WSW 4.5mph /  7.2km/h 10mph /  16.1km/h 68% 0.00in /  0mm 279 W/m2
15:14 63.2 °F /  17.3 °C 52.6 °F /  11.4 °C 30.11in /  1019.5hPa WSW 4.5mph /  7.2km/h 9mph /  14.5km/h 68.4% 0.00in /  0mm 383 W/m2
15:19 63.1 °F /  17.3 °C 52.3 °F /  11.3 °C 30.11in /  1019.5hPa West 4mph /  6.4km/h 8mph /  12.9km/h 68% 0.00in /  0mm 179 W/m2
15:24 63.1 °F /  17.3 °C 52.7 °F /  11.5 °C 30.11in /  1019.5hPa SW 3.3mph /  5.3km/h 6mph /  9.7km/h 68.6% 0.00in /  0mm 227 W/m2
15:29 63.2 °F /  17.3 °C 52.5 °F /  11.4 °C 30.11in /  1019.5hPa WSW 2.6mph /  4.2km/h 6mph /  9.7km/h 68.2% 0.00in /  0mm 193 W/m2
15:34 63.2 °F /  17.3 °C 52.4 °F /  11.3 °C 30.11in /  1019.5hPa WSW 4.2mph /  6.8km/h 6mph /  9.7km/h 68% 0.00in /  0mm 172 W/m2
15:39 63.1 °F /  17.3 °C 52.3 °F /  11.3 °C 30.12in /  1019.9hPa SW 4.5mph /  7.2km/h 8mph /  12.9km/h 68% 0.00in /  0mm 146 W/m2
15:44 63 °F /  17.2 °C 52.5 °F /  11.4 °C 30.12in /  1019.9hPa SW 4mph /  6.4km/h 8mph /  12.9km/h 68.6% 0.00in /  0mm 141 W/m2
15:49 62.8 °F /  17.1 °C 52.5 °F /  11.4 °C 30.12in /  1019.9hPa SSW 5mph /  8km/h 8mph /  12.9km/h 69% 0.00in /  0mm 250 W/m2
15:54 62.8 °F /  17.1 °C 52.5 °F /  11.4 °C 30.12in /  1019.9hPa SW 3.7mph /  6km/h 8mph /  12.9km/h 69% 0.00in /  0mm 163 W/m2
15:59 62.9 °F /  17.2 °C 52.6 °F /  11.4 °C 30.12in /  1019.9hPa SW 4.2mph /  6.8km/h 9mph /  14.5km/h 69% 0.00in /  0mm 214 W/m2
16:04 63 °F /  17.2 °C 52.7 °F /  11.5 °C 30.13in /  1020.2hPa SW 4.3mph /  6.9km/h 9mph /  14.5km/h 69% 0.00in /  0mm 139 W/m2
16:09 62.8 °F /  17.1 °C 52.7 °F /  11.5 °C 30.13in /  1020.2hPa SW 4.2mph /  6.8km/h 9mph /  14.5km/h 69.6% 0.00in /  0mm 121 W/m2
16:14 62.5 °F /  16.9 °C 52.6 °F /  11.4 °C 30.13in /  1020.2hPa SW 4.3mph /  6.9km/h 9mph /  14.5km/h 70% 0.00in /  0mm 111 W/m2
16:19 62.4 °F /  16.9 °C 52.5 °F /  11.4 °C 30.13in /  1020.2hPa SW 3.2mph /  5.1km/h 7mph /  11.3km/h 70% 0.00in /  0mm 100 W/m2
16:24 62.4 °F /  16.9 °C 52.9 °F /  11.6 °C 30.13in /  1020.2hPa SSW 2.4mph /  3.9km/h 5mph /  8km/h 71% 0.00in /  0mm 95 W/m2
16:29 62.4 °F /  16.9 °C 52.9 °F /  11.6 °C 30.13in /  1020.2hPa SSW 2.2mph /  3.5km/h 6mph /  9.7km/h 71% 0.00in /  0mm 88 W/m2
16:34 62.4 °F /  16.9 °C 53 °F /  11.7 °C 30.14in /  1020.5hPa SSW 1.5mph /  2.4km/h 5mph /  8km/h 71.2% 0.00in /  0mm 86 W/m2
16:39 62.2 °F /  16.8 °C 53.1 °F /  11.7 °C 30.14in /  1020.5hPa WSW 2.3mph /  3.7km/h 5mph /  8km/h 72% 0.00in /  0mm 90 W/m2
16:44 61.9 °F /  16.6 °C 53.2 °F /  11.8 °C 30.14in /  1020.5hPa West 1.7mph /  2.7km/h 4mph /  6.4km/h 73.2% 0.00in /  0mm 98 W/m2
16:49 61.5 °F /  16.4 °C 53.5 °F /  11.9 °C 30.14in /  1020.5hPa WNW 2.7mph /  4.3km/h 4mph /  6.4km/h 74.8% 0.00in /  0mm 95 W/m2
16:54 61.2 °F /  16.2 °C 53.5 °F /  11.9 °C 30.14in /  1020.5hPa WNW 2.6mph /  4.2km/h 4mph /  6.4km/h 75.6% 0.00in /  0mm 84 W/m2
16:59 61.1 °F /  16.2 °C 53.6 °F /  12 °C 30.14in /  1020.5hPa West 2.1mph /  3.4km/h 4mph /  6.4km/h 76.4% 0.00in /  0mm 91 W/m2
17:04 61 °F /  16.1 °C 53.8 °F /  12.1 °C 30.14in /  1020.5hPa West 2.8mph /  4.5km/h 5mph /  8km/h 77% 0.00in /  0mm 128 W/m2
17:09 61 °F /  16.1 °C 53.8 °F /  12.1 °C 30.14in /  1020.5hPa WNW 3.2mph /  5.1km/h 5mph /  8km/h 77% 0.00in /  0mm 114 W/m2
17:14 61.2 °F /  16.2 °C 54 °F /  12.2 °C 30.14in /  1020.5hPa WNW 2.1mph /  3.4km/h 5mph /  8km/h 77% 0.00in /  0mm 109 W/m2
17:19 61.2 °F /  16.2 °C 54 °F /  12.2 °C 30.15in /  1020.9hPa West 2.8mph /  4.5km/h 4mph /  6.4km/h 77% 0.00in /  0mm 95 W/m2
17:24 61.3 °F /  16.3 °C 54.1 °F /  12.3 °C 30.15in /  1020.9hPa West 2mph /  3.2km/h 5mph /  8km/h 77% 0.00in /  0mm 84 W/m2
17:29 61.3 °F /  16.3 °C 54.1 °F /  12.3 °C 30.15in /  1020.9hPa West 4mph /  6.4km/h 5mph /  8km/h 77% 0.00in /  0mm 76 W/m2
17:34 61.3 °F /  16.3 °C 54.1 °F /  12.3 °C 30.15in /  1020.9hPa WSW 2.1mph /  3.4km/h 5mph /  8km/h 77% 0.00in /  0mm 63 W/m2
17:39 61.3 °F /  16.3 °C 54.1 °F /  12.3 °C 30.15in /  1020.9hPa WSW 1.6mph /  2.6km/h 4mph /  6.4km/h 77% 0.00in /  0mm 53 W/m2
17:44 61.3 °F /  16.3 °C 54.1 °F /  12.3 °C 30.15in /  1020.9hPa WSW 1.3mph /  2.1km/h 3mph /  4.8km/h 77% 0.00in /  0mm 44 W/m2
17:49 61.2 °F /  16.2 °C 54 °F /  12.2 °C 30.16in /  1021.2hPa WSW 1.1mph /  1.8km/h 3mph /  4.8km/h 77% 0.00in /  0mm 40 W/m2
17:54 61.1 °F /  16.2 °C 53.9 °F /  12.2 °C 30.16in /  1021.2hPa WSW 2mph /  3.2km/h 3mph /  4.8km/h 77% 0.00in /  0mm 33 W/m2
17:59 60.6 °F /  15.9 °C 53.5 °F /  11.9 °C 30.16in /  1021.2hPa WSW 1.1mph /  1.8km/h 4mph /  6.4km/h 77.2% 0.00in /  0mm 32 W/m2
18:04 60.3 °F /  15.7 °C 53.4 °F /  11.9 °C 30.16in /  1021.2hPa Calm   2mph /  3.2km/h 78% 0.00in /  0mm 26 W/m2
18:09 60.1 °F /  15.6 °C 53.2 °F /  11.8 °C 30.16in /  1021.2hPa Calm   1mph /  1.6km/h 78% 0.00in /  0mm 21 W/m2
18:14 60.3 °F /  15.7 °C 53.4 °F /  11.9 °C 30.16in /  1021.2hPa Calm     78% 0.00in /  0mm 11 W/m2
18:19 60.1 °F /  15.6 °C 53.2 °F /  11.8 °C 30.17in /  1021.6hPa Calm   1mph /  1.6km/h 78% 0.00in /  0mm 5 W/m2
18:24 59.6 °F /  15.3 °C 52.8 °F /  11.6 °C 30.17in /  1021.6hPa Calm   1mph /  1.6km/h 78% 0.00in /  0mm 0 W/m2
18:29 59.5 °F /  15.3 °C 52.7 °F /  11.5 °C 30.17in /  1021.6hPa WSW 0.8mph /  1.3km/h 2mph /  3.2km/h 78% 0.00in /  0mm 0 W/m2
18:34 59.1 °F /  15.1 °C 52.3 °F /  11.3 °C 30.17in /  1021.6hPa WSW 1.6mph /  2.6km/h 2mph /  3.2km/h 78.2% 0.00in /  0mm 0 W/m2
18:39 58.5 °F /  14.7 °C 52 °F /  11.1 °C 30.18in /  1021.9hPa WSW 1.3mph /  2.1km/h 2mph /  3.2km/h 78.8% 0.00in /  0mm 0 W/m2
18:44 57.9 °F /  14.4 °C 51.5 °F /  10.8 °C 30.18in /  1021.9hPa WSW 0.2mph /  0.3km/h 2mph /  3.2km/h 79% 0.00in /  0mm 0 W/m2
18:49 57.6 °F /  14.2 °C 51.1 °F /  10.6 °C 30.18in /  1021.9hPa Calm     79% 0.00in /  0mm 0 W/m2
18:54 57.3 °F /  14.1 °C 50.9 °F /  10.5 °C 30.18in /  1021.9hPa WSW 0.4mph /  0.6km/h 2mph /  3.2km/h 79.4% 0.00in /  0mm 0 W/m2
18:59 56.8 °F /  13.8 °C 50.7 °F /  10.4 °C 30.19in /  1022.2hPa WSW 0.8mph /  1.3km/h 2mph /  3.2km/h 80% 0.00in /  0mm 0 W/m2
19:04 56.1 °F /  13.4 °C 50.4 °F /  10.2 °C 30.19in /  1022.2hPa Calm   1mph /  1.6km/h 81% 0.00in /  0mm 0 W/m2
19:09 55.3 °F /  12.9 °C 49.8 °F /  9.9 °C 30.19in /  1022.2hPa Calm     81.8% 0.00in /  0mm 0 W/m2
19:14 54.9 °F /  12.7 °C 49.8 °F /  9.9 °C 30.19in /  1022.2hPa Calm     82.8% 0.00in /  0mm 0 W/m2
19:19 54.9 °F /  12.7 °C 49.9 °F /  9.9 °C 30.19in /  1022.2hPa Calm     83.3% 0.00in /  0mm 0 W/m2
19:24 54.7 °F /  12.6 °C 50 °F /  10 °C 30.19in /  1022.2hPa Calm     84% 0.00in /  0mm 0 W/m2
19:29 54.2 °F /  12.3 °C 49.5 °F /  9.7 °C 30.19in /  1022.2hPa Calm     84% 0.00in /  0mm 0 W/m2
19:34 54 °F /  12.2 °C 49.5 °F /  9.7 °C 30.19in /  1022.2hPa Calm     84.6% 0.00in /  0mm 0 W/m2
19:39 53.8 °F /  12.1 °C 49.5 °F /  9.7 °C 30.20in /  1022.6hPa Calm     85% 0.00in /  0mm 0 W/m2
19:44 53.4 °F /  11.9 °C 49.2 °F /  9.6 °C 30.20in /  1022.6hPa WSW 0.8mph /  1.3km/h 2mph /  3.2km/h 85.2% 0.00in /  0mm 0 W/m2
19:49 53.1 °F /  11.7 °C 49 °F /  9.4 °C 30.21in /  1022.9hPa WSW 0.8mph /  1.3km/h 2mph /  3.2km/h 86% 0.00in /  0mm 0 W/m2
19:54 52.8 °F /  11.6 °C 48.6 °F /  9.2 °C 30.21in /  1022.9hPa WSW 0.2mph /  0.3km/h 2mph /  3.2km/h 86% 0.00in /  0mm 0 W/m2
19:59 52.5 °F /  11.4 °C 48.4 °F /  9.1 °C 30.21in /  1022.9hPa Calm   2mph /  3.2km/h 86% 0.00in /  0mm 0 W/m2
20:04 52.3 °F /  11.3 °C 48.4 °F /  9.1 °C 30.21in /  1022.9hPa WSW 0.2mph /  0.3km/h 1mph /  1.6km/h 86.6% 0.00in /  0mm 0 W/m2
20:09 52.2 °F /  11.2 °C 48.4 °F /  9.1 °C 30.22in /  1023.2hPa WSW 0.4mph /  0.6km/h 2mph /  3.2km/h 87% 0.00in /  0mm 0 W/m2
20:14 52.2 °F /  11.2 °C 48.4 °F /  9.1 °C 30.22in /  1023.2hPa Calm   1mph /  1.6km/h 87% 0.00in /  0mm 0 W/m2
20:19 52 °F /  11.1 °C 48.2 °F /  9 °C 30.22in /  1023.2hPa WSW 0.4mph /  0.6km/h 2mph /  3.2km/h 87% 0.00in /  0mm 0 W/m2
20:24 51.7 °F /  10.9 °C 47.8 °F /  8.8 °C 30.22in /  1023.2hPa Calm   1mph /  1.6km/h 87% 0.00in /  0mm 0 W/m2
20:29 51.6 °F /  10.9 °C 48.2 °F /  9 °C 30.22in /  1023.2hPa WSW 0.9mph /  1.4km/h 2mph /  3.2km/h 88% 0.00in /  0mm 0 W/m2
20:34 51.6 °F /  10.9 °C 48.2 °F /  9 °C 30.22in /  1023.2hPa WSW 1.2mph /  1.9km/h 2mph /  3.2km/h 88% 0.00in /  0mm 0 W/m2
20:39 51.6 °F /  10.9 °C 48.2 °F /  9 °C 30.22in /  1023.2hPa WSW 0.2mph /  0.3km/h 2mph /  3.2km/h 88% 0.00in /  0mm 0 W/m2
20:44 51.4 °F /  10.8 °C 48 °F /  8.9 °C 30.23in /  1023.6hPa Calm     88% 0.00in /  0mm 0 W/m2
20:49 51.4 °F /  10.8 °C 48 °F /  8.9 °C 30.23in /  1023.6hPa WSW 0.2mph /  0.3km/h 1mph /  1.6km/h 88% 0.00in /  0mm 0 W/m2
20:54 51.3 °F /  10.7 °C 47.8 °F /  8.8 °C 30.23in /  1023.6hPa Calm     88% 0.00in /  0mm 0 W/m2
20:59 51.3 °F /  10.7 °C 48 °F /  8.9 °C 30.23in /  1023.6hPa Calm     88.6% 0.00in /  0mm 0 W/m2
21:04 51 °F /  10.6 °C 47.9 °F /  8.8 °C 30.23in /  1023.6hPa Calm     89% 0.00in /  0mm 0 W/m2
21:09 50.7 °F /  10.4 °C 47.7 °F /  8.7 °C 30.23in /  1023.6hPa Calm     89% 0.00in /  0mm 0 W/m2
21:14 50.7 °F /  10.4 °C 47.7 °F /  8.7 °C 30.24in /  1023.9hPa Calm     89% 0.00in /  0mm 0 W/m2
21:19 50.5 °F /  10.3 °C 47.4 °F /  8.6 °C 30.24in /  1023.9hPa Calm     89% 0.00in /  0mm 0 W/m2
21:24 50.2 °F /  10.1 °C 47.1 °F /  8.4 °C 30.23in /  1023.6hPa Calm     89% 0.00in /  0mm 0 W/m2
21:29 50.2 °F /  10.1 °C 47.1 °F /  8.4 °C 30.24in /  1023.9hPa Calm     89% 0.00in /  0mm 0 W/m2
21:34 50.2 °F /  10.1 °C 47.1 °F /  8.4 °C 30.24in /  1023.9hPa Calm     89.2% 0.00in /  0mm 0 W/m2
21:39 50 °F /  10 °C 47.1 °F /  8.4 °C 30.24in /  1023.9hPa Calm     90% 0.00in /  0mm 0 W/m2
21:44 49.7 °F /  9.8 °C 46.8 °F /  8.2 °C 30.24in /  1023.9hPa Calm     90% 0.00in /  0mm 0 W/m2
21:49 49.6 °F /  9.8 °C 46.8 °F /  8.2 °C 30.24in /  1023.9hPa Calm     90% 0.00in /  0mm 0 W/m2
21:54 49.6 °F /  9.8 °C 46.8 °F /  8.2 °C 30.25in /  1024.3hPa Calm     90% 0.00in /  0mm 0 W/m2
21:59 49.4 °F /  9.7 °C 46.5 °F /  8.1 °C 30.25in /  1024.3hPa Calm     90% 0.00in /  0mm 0 W/m2
22:04 49.1 °F /  9.5 °C 46.2 °F /  7.9 °C 30.25in /  1024.3hPa Calm     90% 0.00in /  0mm 0 W/m2
22:09 48.9 °F /  9.4 °C 46 °F /  7.8 °C 30.25in /  1024.3hPa Calm     90% 0.00in /  0mm 0 W/m2
22:14 48.9 °F /  9.4 °C 46 °F /  7.8 °C 30.25in /  1024.3hPa Calm     90% 0.00in /  0mm 0 W/m2
22:19 48.9 °F /  9.4 °C 46 °F /  7.8 °C 30.26in /  1024.6hPa Calm     90% 0.00in /  0mm 0 W/m2
22:24 48.9 °F /  9.4 °C 46 °F /  7.8 °C 30.26in /  1024.6hPa Calm     90% 0.00in /  0mm 0 W/m2
22:29 48.7 °F /  9.3 °C 46.1 °F /  7.8 °C 30.26in /  1024.6hPa Calm     90.6% 0.00in /  0mm 0 W/m2
22:34 48.7 °F /  9.3 °C 46.2 °F /  7.9 °C 30.27in /  1024.9hPa Calm     91% 0.00in /  0mm 0 W/m2
22:39 48.6 °F /  9.2 °C 46 °F /  7.8 °C 30.27in /  1024.9hPa Calm     90.8% 0.00in /  0mm 0 W/m2
22:44 48.4 °F /  9.1 °C 45.7 °F /  7.6 °C 30.27in /  1024.9hPa Calm     90.4% 0.00in /  0mm 0 W/m2
22:49 48.3 °F /  9.1 °C 45.8 °F /  7.7 °C 30.27in /  1024.9hPa Calm     91% 0.00in /  0mm 0 W/m2
22:54 48.2 °F /  9 °C 45.7 °F /  7.6 °C 30.27in /  1024.9hPa Calm     91% 0.00in /  0mm 0 W/m2
22:59 48 °F /  8.9 °C 45.5 °F /  7.5 °C 30.27in /  1024.9hPa Calm     91% 0.00in /  0mm 0 W/m2
23:04 47.8 °F /  8.8 °C 45.2 °F /  7.3 °C 30.27in /  1024.9hPa Calm     91% 0.00in /  0mm 0 W/m2
23:09 47.7 °F /  8.7 °C 45.1 °F /  7.3 °C 30.27in /  1024.9hPa Calm     91% 0.00in /  0mm 0 W/m2
23:14 47.5 °F /  8.6 °C 45 °F /  7.2 °C 30.27in /  1024.9hPa Calm     91% 0.00in /  0mm 0 W/m2
23:19 47.5 °F /  8.6 °C 45 °F /  7.2 °C 30.27in /  1024.9hPa Calm     91% 0.00in /  0mm 0 W/m2
23:24 47.3 °F /  8.5 °C 44.8 °F /  7.1 °C 30.27in /  1024.9hPa Calm     91% 0.00in /  0mm 0 W/m2
23:29 47.1 °F /  8.4 °C 44.6 °F /  7 °C 30.27in /  1024.9hPa Calm     91% 0.00in /  0mm 0 W/m2
23:34 47 °F /  8.3 °C 44.5 °F /  6.9 °C 30.27in /  1024.9hPa Calm     91% 0.00in /  0mm 0 W/m2
23:39 46.9 °F /  8.3 °C 44.4 °F /  6.9 °C 30.27in /  1024.9hPa Calm     91% 0.00in /  0mm 0 W/m2
23:44 46.9 °F /  8.3 °C 44.3 °F /  6.8 °C 30.27in /  1024.9hPa Calm     91% 0.00in /  0mm 0 W/m2
23:49 46.8 °F /  8.2 °C 44.2 °F /  6.8 °C 30.27in /  1024.9hPa Calm     91% 0.00in /  0mm 0 W/m2
23:54 46.8 °F /  8.2 °C 44.2 °F /  6.8 °C 30.27in /  1024.9hPa Calm     91% 0.00in /  0mm 0 W/m2
23:59 46.6 °F /  8.1 °C 44.1 °F /  6.7 °C 30.27in /  1024.9hPa Calm     91% 0.00in /  0mm 0 W/m2
Bath Spa Weather
Compliments of Weather Underground - 2 mb